Riondel, Canada
Current Conditions -  °F | °C
As of 9:00 AM on Thursday 30 Oct 2014 (Local Time) from CYCG Reporting Station
Overcast Overcast  
Wind Chill: 42°   Ceiling: 6400
Heat Index: 46°   Visibility: 15mi
Dew Point: 43°   Wind: 8mph
Humidity: 87%   Direction: 20°NNE
Pressure: 30.18"   Gusts: NA
Location:  49.77°N, 116.85°W
Report Text: CYCG 301600Z 02007KT 15SM FEW003 SCT020 BKN064 OVC120 08/06 A3018 RMK SF1SC2SC3AC2 SLP229
Loading
Personal Weather Stations






























Interactive Weather Map
Tropical Storm Tracking
New forecast layout! Learn more

10-Day Weather Forecast

Advertisements
Track Severe Weather on mobile